This is the latest recevied weather packets stored in our database for station/object N4TLC. If no packets are shown the sender has not sent any weather packets the latest 10 day(s).
| Time | Temp. | Humidity | Pressure | Rain* | Wind** | Luminosity | Snow |
|---|---|---|---|---|---|---|---|
| 1777673864 | 19.44° C | 48% | 1013.6 hPa | 0 mm | - | 276 W/m² | - |
| 1777673561 | 20° C | 47% | 1013.4 hPa | 0 mm | - | 292 W/m² | - |
| 1777673258 | 19.44° C | 49% | 1013.7 hPa | 0 mm | - | 316 W/m² | - |
| 1777672955 | 18.89° C | 48% | 1013.8 hPa | 0 mm | - | 335 W/m² | - |
| 1777672652 | 19.44° C | 48% | 1013.7 hPa | 0 mm | - | 369 W/m² | - |
| 1777672347 | 19.44° C | 47% | 1013.7 hPa | 0 mm | - | 401 W/m² | - |
| 1777672043 | 18.89° C | 49% | 1013.6 hPa | 0 mm | - | 388 W/m² | - |
| 1777671739 | 19.44° C | 47% | 1013.7 hPa | 0 mm | - | 342 W/m² | - |
| 1777671436 | 18.89° C | 49% | 1013.7 hPa | 0 mm | - | 466 W/m² | - |
| 1777671132 | 18.89° C | 48% | 1013.8 hPa | 0 mm | - | 381 W/m² | - |
| 1777670828 | 18.89° C | 48% | 1013.6 hPa | 0 mm | - | 265 W/m² | - |
| 1777670525 | 20° C | 46% | 1013.7 hPa | 0 mm | - | 353 W/m² | - |
| 1777670222 | 20° C | 45% | 1013.6 hPa | 0 mm | - | 524 W/m² | - |
| 1777669919 | 20.56° C | 43% | 1013.7 hPa | 0 mm | - | 475 W/m² | - |
| 1777669616 | 20.56° C | 43% | 1013.6 hPa | 0 mm | - | 439 W/m² | - |
| 1777669312 | 20° C | 43% | 1013.5 hPa | 0 mm | - | 522 W/m² | - |
| 1777669008 | 20° C | 44% | 1013.7 hPa | 0 mm | - | 566 W/m² | - |
| 1777668706 | 20° C | 43% | 1013.6 hPa | 0 mm | - | 300 W/m² | - |
| 1777668403 | 20.56° C | 41% | 1013.8 hPa | 0 mm | - | 483 W/m² | - |
| 1777668098 | 21.11° C | 41% | 1013.8 hPa | 0 mm | - | 654 W/m² | - |
| 1777667795 | 21.11° C | 42% | 1013.9 hPa | 0 mm | - | 261 W/m² | - |
| 1777667493 | 21.11° C | 40% | 1014.2 hPa | 0 mm | - | 256 W/m² | - |
| 1777667190 | 20.56° C | 43% | 1014 hPa | 0 mm | - | 734 W/m² | - |
| 1777666887 | 20.56° C | 41% | 1014.1 hPa | 0 mm | - | 637 W/m² | - |
| 1777666584 | 20° C | 41% | 1014.2 hPa | 0 mm | - | 688 W/m² | - |
* Rain latest hour (hover to see other rain measurements)
** Current wind speed in m/s (hover to see current wind gust speed)